sensor_id;sensor_type;location;lat;lon;timestamp;temperature;humidity
9915;DHT22;4996;48.746;9.174;2022-11-20T00:00:34;7.70;99.90
9915;DHT22;4996;48.746;9.174;2022-11-20T00:03:00;7.80;99.90
9915;DHT22;4996;48.746;9.174;2022-11-20T00:05:25;7.80;99.90
9915;DHT22;4996;48.746;9.174;2022-11-20T00:07:51;7.80;99.90
9915;DHT22;4996;48.746;9.174;2022-11-20T00:10:16;7.80;99.90
9915;DHT22;4996;48.746;9.174;2022-11-20T00:12:42;7.80;99.90
9915;DHT22;4996;48.746;9.174;2022-11-20T00:15:08;7.80;99.90
9915;DHT22;4996;48.746;9.174;2022-11-20T00:17:34;7.80;99.90
9915;DHT22;4996;48.746;9.174;2022-11-20T00:19:59;7.80;99.90
9915;DHT22;4996;48.746;9.174;2022-11-20T00:22:25;7.80;99.90
9915;DHT22;4996;48.746;9.174;2022-11-20T00:24:50;7.80;99.90
9915;DHT22;4996;48.746;9.174;2022-11-20T00:27:16;7.80;99.90
9915;DHT22;4996;48.746;9.174;2022-11-20T00:29:41;7.90;99.90
9915;DHT22;4996;48.746;9.174;2022-11-20T00:32:07;7.80;99.90
9915;DHT22;4996;48.746;9.174;2022-11-20T00:34:32;7.80;99.90
9915;DHT22;4996;48.746;9.174;2022-11-20T00:36:58;7.80;99.90
9915;DHT22;4996;48.746;9.174;2022-11-20T00:39:23;7.80;99.90
9915;DHT22;4996;48.746;9.174;2022-11-20T00:41:49;7.80;99.90
9915;DHT22;4996;48.746;9.174;2022-11-20T00:44:15;7.80;99.90
9915;DHT22;4996;48.746;9.174;2022-11-20T00:46:40;7.80;99.90
9915;DHT22;4996;48.746;9.174;2022-11-20T00:49:06;7.80;99.90
9915;DHT22;4996;48.746;9.174;2022-11-20T00:51:31;7.80;99.90
9915;DHT22;4996;48.746;9.174;2022-11-20T00:53:58;7.80;99.90
9915;DHT22;4996;48.746;9.174;2022-11-20T00:56:25;7.80;99.90
9915;DHT22;4996;48.746;9.174;2022-11-20T00:58:51;7.80;99.90
9915;DHT22;4996;48.746;9.174;2022-11-20T01:01:17;7.60;99.90
9915;DHT22;4996;48.746;9.174;2022-11-20T01:03:48;7.60;99.90
9915;DHT22;4996;48.746;9.174;2022-11-20T01:08:41;7.60;99.90
9915;DHT22;4996;48.746;9.174;2022-11-20T01:11:10;7.60;99.90
9915;DHT22;4996;48.746;9.174;2022-11-20T01:13:35;7.60;99.90
9915;DHT22;4996;48.746;9.174;2022-11-20T01:16:12;7.70;99.90
9915;DHT22;4996;48.746;9.174;2022-11-20T01:18:40;7.70;99.90
9915;DHT22;4996;48.746;9.174;2022-11-20T01:21:09;7.70;99.90
9915;DHT22;4996;48.746;9.174;2022-11-20T01:23:38;7.70;99.90
9915;DHT22;4996;48.746;9.174;2022-11-20T01:26:09;7.70;99.90
9915;DHT22;4996;48.746;9.174;2022-11-20T01:28:36;7.70;99.90
9915;DHT22;4996;48.746;9.174;2022-11-20T01:31:01;7.70;99.90
9915;DHT22;4996;48.746;9.174;2022-11-20T01:33:35;7.40;99.90
9915;DHT22;4996;48.746;9.174;2022-11-20T01:36:04;7.40;99.90
9915;DHT22;4996;48.746;9.174;2022-11-20T01:38:31;7.30;99.90
9915;DHT22;4996;48.746;9.174;2022-11-20T01:40:56;7.40;99.90
9915;DHT22;4996;48.746;9.174;2022-11-20T01:43:22;7.40;99.90
9915;DHT22;4996;48.746;9.174;2022-11-20T01:48:48;7.10;99.90
9915;DHT22;4996;48.746;9.174;2022-11-20T01:51:24;6.90;99.90
9915;DHT22;4996;48.746;9.174;2022-11-20T01:53:53;6.90;99.90
9915;DHT22;4996;48.746;9.174;2022-11-20T01:56:19;7.00;99.90
9915;DHT22;4996;48.746;9.174;2022-11-20T01:58:51;7.00;99.90
9915;DHT22;4996;48.746;9.174;2022-11-20T02:01:20;6.90;99.90
9915;DHT22;4996;48.746;9.174;2022-11-20T02:03:46;6.90;99.90
9915;DHT22;4996;48.746;9.174;2022-11-20T02:06:26;6.80;99.90
9915;DHT22;4996;48.746;9.174;2022-11-20T02:08:53;6.80;99.90
9915;DHT22;4996;48.746;9.174;2022-11-20T02:11:19;6.80;99.90
9915;DHT22;4996;48.746;9.174;2022-11-20T02:13:45;6.70;99.90
9915;DHT22;4996;48.746;9.174;2022-11-20T02:16:26;6.70;99.90
9915;DHT22;4996;48.746;9.174;2022-11-20T02:18:54;6.70;99.90
9915;DHT22;4996;48.746;9.174;2022-11-20T02:24:06;6.70;99.90
9915;DHT22;4996;48.746;9.174;2022-11-20T02:26:43;6.60;99.90
9915;DHT22;4996;48.746;9.174;2022-11-20T02:29:09;6.70;99.90
9915;DHT22;4996;48.746;9.174;2022-11-20T02:31:40;6.70;99.90
9915;DHT22;4996;48.746;9.174;2022-11-20T02:34:07;6.60;99.90
9915;DHT22;4996;48.746;9.174;2022-11-20T02:36:34;6.60;99.90
9915;DHT22;4996;48.746;9.174;2022-11-20T02:39:01;6.70;99.90
9915;DHT22;4996;48.746;9.174;2022-11-20T02:41:35;6.70;99.90
9915;DHT22;4996;48.746;9.174;2022-11-20T02:44:02;6.70;99.90
9915;DHT22;4996;48.746;9.174;2022-11-20T02:46:28;6.70;99.90
9915;DHT22;4996;48.746;9.174;2022-11-20T02:48:53;6.80;99.90
9915;DHT22;4996;48.746;9.174;2022-11-20T02:51:19;6.80;99.90
9915;DHT22;4996;48.746;9.174;2022-11-20T02:53:44;6.90;99.90
9915;DHT22;4996;48.746;9.174;2022-11-20T02:56:10;6.80;99.90
9915;DHT22;4996;48.746;9.174;2022-11-20T02:58:36;6.90;99.90
9915;DHT22;4996;48.746;9.174;2022-11-20T03:01:01;7.00;99.90
9915;DHT22;4996;48.746;9.174;2022-11-20T03:03:27;7.00;99.90
9915;DHT22;4996;48.746;9.174;2022-11-20T03:05:52;7.00;99.90
9915;DHT22;4996;48.746;9.174;2022-11-20T03:08:18;7.00;99.90
9915;DHT22;4996;48.746;9.174;2022-11-20T03:10:43;7.00;99.90
9915;DHT22;4996;48.746;9.174;2022-11-20T03:13:09;7.00;99.90
9915;DHT22;4996;48.746;9.174;2022-11-20T03:15:36;6.90;99.90
9915;DHT22;4996;48.746;9.174;2022-11-20T03:18:02;7.00;99.90
9915;DHT22;4996;48.746;9.174;2022-11-20T03:20:28;7.00;99.90
9915;DHT22;4996;48.746;9.174;2022-11-20T03:22:54;6.70;99.90
9915;DHT22;4996;48.746;9.174;2022-11-20T03:25:20;6.70;99.90
9915;DHT22;4996;48.746;9.174;2022-11-20T03:27:46;6.70;99.90
9915;DHT22;4996;48.746;9.174;2022-11-20T03:30:12;6.70;99.90
9915;DHT22;4996;48.746;9.174;2022-11-20T03:32:37;6.80;99.90
9915;DHT22;4996;48.746;9.174;2022-11-20T03:35:03;6.80;99.90
9915;DHT22;4996;48.746;9.174;2022-11-20T03:37:29;6.90;99.90
9915;DHT22;4996;48.746;9.174;2022-11-20T03:39:54;6.80;99.90
9915;DHT22;4996;48.746;9.174;2022-11-20T03:42:20;6.70;99.90
9915;DHT22;4996;48.746;9.174;2022-11-20T03:45:04;6.70;99.90
9915;DHT22;4996;48.746;9.174;2022-11-20T03:47:30;6.80;99.90
9915;DHT22;4996;48.746;9.174;2022-11-20T03:49:55;6.60;99.90
9915;DHT22;4996;48.746;9.174;2022-11-20T03:52:21;6.70;99.90
9915;DHT22;4996;48.746;9.174;2022-11-20T03:54:46;6.70;99.90
9915;DHT22;4996;48.746;9.174;2022-11-20T03:57:12;6.70;99.90
9915;DHT22;4996;48.746;9.174;2022-11-20T03:59:37;6.70;99.90
9915;DHT22;4996;48.746;9.174;2022-11-20T04:02:03;6.70;99.90
9915;DHT22;4996;48.746;9.174;2022-11-20T04:04:28;6.60;99.90
9915;DHT22;4996;48.746;9.174;2022-11-20T04:06:54;6.60;99.90
9915;DHT22;4996;48.746;9.174;2022-11-20T04:09:19;6.50;99.90
9915;DHT22;4996;48.746;9.174;2022-11-20T04:11:45;6.50;99.90
9915;DHT22;4996;48.746;9.174;2022-11-20T04:14:15;6.50;99.90
9915;DHT22;4996;48.746;9.174;2022-11-20T04:16:41;6.40;99.90
9915;DHT22;4996;48.746;9.174;2022-11-20T04:19:10;6.40;99.90
9915;DHT22;4996;48.746;9.174;2022-11-20T04:21:37;6.40;99.90
9915;DHT22;4996;48.746;9.174;2022-11-20T04:24:02;6.40;99.90
9915;DHT22;4996;48.746;9.174;2022-11-20T04:26:29;6.30;99.90
9915;DHT22;4996;48.746;9.174;2022-11-20T04:28:56;6.30;99.90
9915;DHT22;4996;48.746;9.174;2022-11-20T04:31:24;6.30;99.90
9915;DHT22;4996;48.746;9.174;2022-11-20T04:33:50;6.40;99.90
9915;DHT22;4996;48.746;9.174;2022-11-20T04:36:18;6.40;99.90
9915;DHT22;4996;48.746;9.174;2022-11-20T04:38:45;6.10;99.90
9915;DHT22;4996;48.746;9.174;2022-11-20T04:41:16;6.10;99.90
9915;DHT22;4996;48.746;9.174;2022-11-20T04:43:46;6.10;99.90
9915;DHT22;4996;48.746;9.174;2022-11-20T04:46:12;6.20;99.90
9915;DHT22;4996;48.746;9.174;2022-11-20T04:48:38;6.20;99.90
9915;DHT22;4996;48.746;9.174;2022-11-20T04:51:04;6.20;99.90
9915;DHT22;4996;48.746;9.174;2022-11-20T04:53:29;6.10;99.90
9915;DHT22;4996;48.746;9.174;2022-11-20T04:56:03;6.50;99.90
9915;DHT22;4996;48.746;9.174;2022-11-20T04:58:29;6.20;99.90
9915;DHT22;4996;48.746;9.174;2022-11-20T05:01:07;6.10;99.90
9915;DHT22;4996;48.746;9.174;2022-11-20T05:03:34;6.00;99.90
9915;DHT22;4996;48.746;9.174;2022-11-20T05:06:01;6.00;99.90
9915;DHT22;4996;48.746;9.174;2022-11-20T05:08:27;6.20;99.90
9915;DHT22;4996;48.746;9.174;2022-11-20T05:10:53;6.30;99.90
9915;DHT22;4996;48.746;9.174;2022-11-20T05:13:18;6.20;99.90
9915;DHT22;4996;48.746;9.174;2022-11-20T05:15:44;6.20;99.90
9915;DHT22;4996;48.746;9.174;2022-11-20T05:18:09;6.20;99.90
9915;DHT22;4996;48.746;9.174;2022-11-20T05:20:35;6.20;99.90
9915;DHT22;4996;48.746;9.174;2022-11-20T05:23:02;6.10;99.90
9915;DHT22;4996;48.746;9.174;2022-11-20T05:25:27;6.20;99.90
9915;DHT22;4996;48.746;9.174;2022-11-20T05:27:53;6.30;99.90
9915;DHT22;4996;48.746;9.174;2022-11-20T05:30:18;6.30;99.90
9915;DHT22;4996;48.746;9.174;2022-11-20T05:32:44;6.10;99.90
9915;DHT22;4996;48.746;9.174;2022-11-20T05:35:09;6.20;99.90
9915;DHT22;4996;48.746;9.174;2022-11-20T05:37:35;6.30;99.90
9915;DHT22;4996;48.746;9.174;2022-11-20T05:40:00;6.30;99.90
9915;DHT22;4996;48.746;9.174;2022-11-20T05:42:29;6.40;99.90
9915;DHT22;4996;48.746;9.174;2022-11-20T05:44:58;6.40;99.90
9915;DHT22;4996;48.746;9.174;2022-11-20T05:47:25;6.30;99.90
9915;DHT22;4996;48.746;9.174;2022-11-20T05:49:50;6.40;99.90
9915;DHT22;4996;48.746;9.174;2022-11-20T05:52:16;6.40;99.90
9915;DHT22;4996;48.746;9.174;2022-11-20T05:54:41;6.40;99.90
9915;DHT22;4996;48.746;9.174;2022-11-20T05:57:07;6.50;99.90
9915;DHT22;4996;48.746;9.174;2022-11-20T05:59:32;6.50;99.90
9915;DHT22;4996;48.746;9.174;2022-11-20T06:01:58;6.50;99.90
9915;DHT22;4996;48.746;9.174;2022-11-20T06:04:23;6.60;99.90
9915;DHT22;4996;48.746;9.174;2022-11-20T06:06:49;6.70;99.90
9915;DHT22;4996;48.746;9.174;2022-11-20T06:09:14;6.80;99.90
9915;DHT22;4996;48.746;9.174;2022-11-20T06:11:40;6.80;99.90
9915;DHT22;4996;48.746;9.174;2022-11-20T06:14:06;6.80;99.90
9915;DHT22;4996;48.746;9.174;2022-11-20T06:16:31;6.90;99.90
9915;DHT22;4996;48.746;9.174;2022-11-20T06:18:57;7.00;99.90
9915;DHT22;4996;48.746;9.174;2022-11-20T06:21:23;7.00;99.90
9915;DHT22;4996;48.746;9.174;2022-11-20T06:23:50;7.00;99.90
9915;DHT22;4996;48.746;9.174;2022-11-20T06:26:21;7.10;99.90
9915;DHT22;4996;48.746;9.174;2022-11-20T06:28:46;7.00;99.90
9915;DHT22;4996;48.746;9.174;2022-11-20T06:31:14;7.00;99.90
9915;DHT22;4996;48.746;9.174;2022-11-20T06:33:41;6.90;99.90
9915;DHT22;4996;48.746;9.174;2022-11-20T06:36:06;7.00;99.90
9915;DHT22;4996;48.746;9.174;2022-11-20T06:38:32;7.00;99.90
9915;DHT22;4996;48.746;9.174;2022-11-20T06:40:58;7.10;99.90
9915;DHT22;4996;48.746;9.174;2022-11-20T06:43:24;7.10;99.90
9915;DHT22;4996;48.746;9.174;2022-11-20T06:45:54;7.00;99.90
9915;DHT22;4996;48.746;9.174;2022-11-20T06:48:20;7.00;99.90
9915;DHT22;4996;48.746;9.174;2022-11-20T06:50:46;6.90;99.90
9915;DHT22;4996;48.746;9.174;2022-11-20T06:53:11;6.70;99.90
9915;DHT22;4996;48.746;9.174;2022-11-20T06:55:37;6.70;99.90
9915;DHT22;4996;48.746;9.174;2022-11-20T06:58:02;6.80;99.90
9915;DHT22;4996;48.746;9.174;2022-11-20T07:00:28;6.70;99.90
9915;DHT22;4996;48.746;9.174;2022-11-20T07:02:54;6.80;99.90
9915;DHT22;4996;48.746;9.174;2022-11-20T07:05:20;6.70;99.90
9915;DHT22;4996;48.746;9.174;2022-11-20T07:07:45;6.70;99.90
9915;DHT22;4996;48.746;9.174;2022-11-20T07:10:11;6.80;99.90
9915;DHT22;4996;48.746;9.174;2022-11-20T07:12:37;6.90;99.90
9915;DHT22;4996;48.746;9.174;2022-11-20T07:15:02;6.80;99.90
9915;DHT22;4996;48.746;9.174;2022-11-20T07:17:28;7.00;99.90
9915;DHT22;4996;48.746;9.174;2022-11-20T07:19:54;6.90;99.90
9915;DHT22;4996;48.746;9.174;2022-11-20T07:22:19;6.90;99.90
9915;DHT22;4996;48.746;9.174;2022-11-20T07:24:47;6.90;99.90
9915;DHT22;4996;48.746;9.174;2022-11-20T07:27:12;6.90;99.90
9915;DHT22;4996;48.746;9.174;2022-11-20T07:29:38;7.00;99.90
9915;DHT22;4996;48.746;9.174;2022-11-20T07:32:04;7.00;99.90
9915;DHT22;4996;48.746;9.174;2022-11-20T07:34:29;7.10;99.90
9915;DHT22;4996;48.746;9.174;2022-11-20T07:36:55;7.00;99.90
9915;DHT22;4996;48.746;9.174;2022-11-20T07:39:20;7.00;99.90
9915;DHT22;4996;48.746;9.174;2022-11-20T07:41:46;7.00;99.90
9915;DHT22;4996;48.746;9.174;2022-11-20T07:44:11;7.20;99.90
9915;DHT22;4996;48.746;9.174;2022-11-20T07:46:37;7.10;99.90
9915;DHT22;4996;48.746;9.174;2022-11-20T07:49:02;7.20;99.90
9915;DHT22;4996;48.746;9.174;2022-11-20T07:51:28;7.30;99.90
9915;DHT22;4996;48.746;9.174;2022-11-20T07:53:54;7.30;99.90
9915;DHT22;4996;48.746;9.174;2022-11-20T07:56:20;7.40;99.90
9915;DHT22;4996;48.746;9.174;2022-11-20T07:58:45;7.40;99.90
9915;DHT22;4996;48.746;9.174;2022-11-20T08:01:11;7.50;99.90
9915;DHT22;4996;48.746;9.174;2022-11-20T08:03:36;7.60;99.90
9915;DHT22;4996;48.746;9.174;2022-11-20T08:06:05;7.60;99.90
9915;DHT22;4996;48.746;9.174;2022-11-20T08:08:31;7.40;99.90
9915;DHT22;4996;48.746;9.174;2022-11-20T08:10:57;7.50;99.90
9915;DHT22;4996;48.746;9.174;2022-11-20T08:13:41;7.40;99.90
9915;DHT22;4996;48.746;9.174;2022-11-20T08:16:25;7.50;99.90
9915;DHT22;4996;48.746;9.174;2022-11-20T08:18:51;7.50;99.90
9915;DHT22;4996;48.746;9.174;2022-11-20T08:21:16;7.60;99.90
9915;DHT22;4996;48.746;9.174;2022-11-20T08:23:42;7.60;99.90
9915;DHT22;4996;48.746;9.174;2022-11-20T08:26:07;7.60;99.90
9915;DHT22;4996;48.746;9.174;2022-11-20T08:28:33;7.60;99.90
9915;DHT22;4996;48.746;9.174;2022-11-20T08:31:02;7.60;99.90
9915;DHT22;4996;48.746;9.174;2022-11-20T08:33:28;7.80;99.90
9915;DHT22;4996;48.746;9.174;2022-11-20T08:36:01;7.90;99.90
9915;DHT22;4996;48.746;9.174;2022-11-20T08:38:27;8.10;99.90
9915;DHT22;4996;48.746;9.174;2022-11-20T08:40:57;8.10;99.90
9915;DHT22;4996;48.746;9.174;2022-11-20T08:43:40;8.10;99.90
9915;DHT22;4996;48.746;9.174;2022-11-20T08:46:06;8.10;99.90
9915;DHT22;4996;48.746;9.174;2022-11-20T08:48:31;8.10;99.90
9915;DHT22;4996;48.746;9.174;2022-11-20T08:50:58;8.00;99.90
9915;DHT22;4996;48.746;9.174;2022-11-20T08:53:24;8.00;99.90
9915;DHT22;4996;48.746;9.174;2022-11-20T08:55:50;8.10;99.90
9915;DHT22;4996;48.746;9.174;2022-11-20T08:58:15;8.00;99.90
9915;DHT22;4996;48.746;9.174;2022-11-20T09:00:41;8.10;99.90
9915;DHT22;4996;48.746;9.174;2022-11-20T09:03:07;8.20;99.90
9915;DHT22;4996;48.746;9.174;2022-11-20T09:05:32;8.10;99.90
9915;DHT22;4996;48.746;9.174;2022-11-20T09:07:58;8.10;99.90
9915;DHT22;4996;48.746;9.174;2022-11-20T09:10:24;8.10;99.90
9915;DHT22;4996;48.746;9.174;2022-11-20T09:12:49;8.10;99.90
9915;DHT22;4996;48.746;9.174;2022-11-20T09:15:17;8.30;99.90
9915;DHT22;4996;48.746;9.174;2022-11-20T09:17:42;8.30;99.90
9915;DHT22;4996;48.746;9.174;2022-11-20T09:20:15;8.20;99.90
9915;DHT22;4996;48.746;9.174;2022-11-20T09:22:41;8.20;99.90
9915;DHT22;4996;48.746;9.174;2022-11-20T09:25:07;8.10;99.90
9915;DHT22;4996;48.746;9.174;2022-11-20T09:27:33;8.10;99.90
9915;DHT22;4996;48.746;9.174;2022-11-20T09:29:58;8.00;99.90
9915;DHT22;4996;48.746;9.174;2022-11-20T09:32:24;8.00;99.90
9915;DHT22;4996;48.746;9.174;2022-11-20T09:34:49;8.10;99.90
9915;DHT22;4996;48.746;9.174;2022-11-20T09:37:15;8.20;99.90
9915;DHT22;4996;48.746;9.174;2022-11-20T09:39:40;8.10;99.90
9915;DHT22;4996;48.746;9.174;2022-11-20T09:50:17;8.00;99.90
9915;DHT22;4996;48.746;9.174;2022-11-20T09:53:00;8.10;99.90
9915;DHT22;4996;48.746;9.174;2022-11-20T09:55:29;8.10;99.90
9915;DHT22;4996;48.746;9.174;2022-11-20T09:57:56;8.10;99.90
9915;DHT22;4996;48.746;9.174;2022-11-20T10:00:23;8.20;99.90
9915;DHT22;4996;48.746;9.174;2022-11-20T10:03:22;8.50;99.90
9915;DHT22;4996;48.746;9.174;2022-11-20T10:05:54;8.50;99.90
9915;DHT22;4996;48.746;9.174;2022-11-20T10:08:24;8.50;99.90
9915;DHT22;4996;48.746;9.174;2022-11-20T10:11:04;8.40;99.90
9915;DHT22;4996;48.746;9.174;2022-11-20T10:13:44;8.30;99.90
9915;DHT22;4996;48.746;9.174;2022-11-20T10:25:05;8.30;99.90
9915;DHT22;4996;48.746;9.174;2022-11-20T10:30:12;8.20;99.90
9915;DHT22;4996;48.746;9.174;2022-11-20T10:32:45;8.20;99.90
9915;DHT22;4996;48.746;9.174;2022-11-20T10:37:44;8.20;99.90
9915;DHT22;4996;48.746;9.174;2022-11-20T10:40:38;8.20;99.90
9915;DHT22;4996;48.746;9.174;2022-11-20T10:43:24;8.00;99.90
9915;DHT22;4996;48.746;9.174;2022-11-20T10:45:57;7.90;99.90
9915;DHT22;4996;48.746;9.174;2022-11-20T10:48:25;8.00;99.90
9915;DHT22;4996;48.746;9.174;2022-11-20T10:51:13;8.00;99.90
9915;DHT22;4996;48.746;9.174;2022-11-20T11:01:58;7.90;99.90
9915;DHT22;4996;48.746;9.174;2022-11-20T11:07:16;8.40;99.90
9915;DHT22;4996;48.746;9.174;2022-11-20T11:09:49;8.40;99.90
9915;DHT22;4996;48.746;9.174;2022-11-20T11:12:15;8.30;99.90
9915;DHT22;4996;48.746;9.174;2022-11-20T11:14:49;8.30;99.90
9915;DHT22;4996;48.746;9.174;2022-11-20T11:17:24;8.30;99.90
9915;DHT22;4996;48.746;9.174;2022-11-20T11:22:44;8.40;99.90
9915;DHT22;4996;48.746;9.174;2022-11-20T11:27:51;8.60;99.90
9915;DHT22;4996;48.746;9.174;2022-11-20T11:30:19;8.80;99.90
9915;DHT22;4996;48.746;9.174;2022-11-20T11:32:45;8.70;99.90
9915;DHT22;4996;48.746;9.174;2022-11-20T11:35:22;8.90;99.90
9915;DHT22;4996;48.746;9.174;2022-11-20T11:37:48;9.00;99.90
9915;DHT22;4996;48.746;9.174;2022-11-20T11:40:15;9.20;99.90
9915;DHT22;4996;48.746;9.174;2022-11-20T11:42:46;9.00;99.90
9915;DHT22;4996;48.746;9.174;2022-11-20T11:45:16;9.00;99.90
9915;DHT22;4996;48.746;9.174;2022-11-20T11:47:44;8.90;99.90
9915;DHT22;4996;48.746;9.174;2022-11-20T11:50:22;8.60;99.90
9915;DHT22;4996;48.746;9.174;2022-11-20T11:58:45;8.90;99.90
9915;DHT22;4996;48.746;9.174;2022-11-20T12:01:29;10.00;99.90
9915;DHT22;4996;48.746;9.174;2022-11-20T12:04:13;11.20;99.90
9915;DHT22;4996;48.746;9.174;2022-11-20T12:06:43;11.70;99.90
9915;DHT22;4996;48.746;9.174;2022-11-20T12:09:10;11.50;99.90
9915;DHT22;4996;48.746;9.174;2022-11-20T12:11:51;11.20;99.90
9915;DHT22;4996;48.746;9.174;2022-11-20T12:14:26;11.00;99.90
9915;DHT22;4996;48.746;9.174;2022-11-20T12:16:53;10.50;99.90
9915;DHT22;4996;48.746;9.174;2022-11-20T12:19:20;10.30;99.90
9915;DHT22;4996;48.746;9.174;2022-11-20T12:22:07;10.20;99.90
9915;DHT22;4996;48.746;9.174;2022-11-20T12:27:55;10.40;99.90
9915;DHT22;4996;48.746;9.174;2022-11-20T12:30:23;10.90;99.90
9915;DHT22;4996;48.746;9.174;2022-11-20T12:44:51;11.60;99.90
9915;DHT22;4996;48.746;9.174;2022-11-20T12:53:07;10.50;99.90
9915;DHT22;4996;48.746;9.174;2022-11-20T12:55:56;10.30;99.90
9915;DHT22;4996;48.746;9.174;2022-11-20T13:01:56;10.30;99.90
9915;DHT22;4996;48.746;9.174;2022-11-20T13:07:13;9.60;99.90
9915;DHT22;4996;48.746;9.174;2022-11-20T13:09:45;9.50;99.90
9915;DHT22;4996;48.746;9.174;2022-11-20T13:17:54;9.40;99.90
9915;DHT22;4996;48.746;9.174;2022-11-20T13:20:21;9.30;99.90
9915;DHT22;4996;48.746;9.174;2022-11-20T13:22:49;9.10;99.90
9915;DHT22;4996;48.746;9.174;2022-11-20T13:25:27;9.20;99.90
9915;DHT22;4996;48.746;9.174;2022-11-20T13:27:54;9.20;99.90
9915;DHT22;4996;48.746;9.174;2022-11-20T13:30:28;9.20;99.90
9915;DHT22;4996;48.746;9.174;2022-11-20T13:33:35;9.40;99.90
9915;DHT22;4996;48.746;9.174;2022-11-20T13:38:50;9.10;99.90
9915;DHT22;4996;48.746;9.174;2022-11-20T13:41:42;9.10;99.90
9915;DHT22;4996;48.746;9.174;2022-11-20T13:44:39;9.40;99.90
9915;DHT22;4996;48.746;9.174;2022-11-20T13:47:23;9.30;99.90
9915;DHT22;4996;48.746;9.174;2022-11-20T13:49:51;9.30;99.90
9915;DHT22;4996;48.746;9.174;2022-11-20T13:58:31;9.40;99.90
9915;DHT22;4996;48.746;9.174;2022-11-20T14:01:15;9.40;99.90
9915;DHT22;4996;48.746;9.174;2022-11-20T14:03:42;9.50;99.90
9915;DHT22;4996;48.746;9.174;2022-11-20T14:08:47;9.20;99.90
9915;DHT22;4996;48.746;9.174;2022-11-20T14:11:20;9.10;99.90
9915;DHT22;4996;48.746;9.174;2022-11-20T14:16:26;9.20;99.90
9915;DHT22;4996;48.746;9.174;2022-11-20T14:18:52;9.20;99.90
9915;DHT22;4996;48.746;9.174;2022-11-20T14:21:29;9.30;99.90
9915;DHT22;4996;48.746;9.174;2022-11-20T14:24:11;9.30;99.90
9915;DHT22;4996;48.746;9.174;2022-11-20T14:26:41;9.00;99.90
9915;DHT22;4996;48.746;9.174;2022-11-20T14:29:18;9.10;99.90
9915;DHT22;4996;48.746;9.174;2022-11-20T14:31:45;9.00;99.90
9915;DHT22;4996;48.746;9.174;2022-11-20T14:34:21;8.90;99.90
9915;DHT22;4996;48.746;9.174;2022-11-20T14:36:47;8.70;99.90
9915;DHT22;4996;48.746;9.174;2022-11-20T14:39:27;8.80;99.90
9915;DHT22;4996;48.746;9.174;2022-11-20T14:41:54;8.70;99.90
9915;DHT22;4996;48.746;9.174;2022-11-20T14:44:26;8.80;99.90
9915;DHT22;4996;48.746;9.174;2022-11-20T14:46:52;9.00;99.90
9915;DHT22;4996;48.746;9.174;2022-11-20T14:49:19;9.10;99.90
9915;DHT22;4996;48.746;9.174;2022-11-20T14:51:45;9.00;99.90
9915;DHT22;4996;48.746;9.174;2022-11-20T14:54:15;9.00;99.90
9915;DHT22;4996;48.746;9.174;2022-11-20T14:56:40;9.00;99.90
9915;DHT22;4996;48.746;9.174;2022-11-20T14:59:07;9.00;99.90
9915;DHT22;4996;48.746;9.174;2022-11-20T15:01:33;9.00;99.90
9915;DHT22;4996;48.746;9.174;2022-11-20T15:04:20;9.00;99.90
9915;DHT22;4996;48.746;9.174;2022-11-20T15:06:56;9.00;99.90
9915;DHT22;4996;48.746;9.174;2022-11-20T15:09:22;8.90;99.90
9915;DHT22;4996;48.746;9.174;2022-11-20T15:12:06;8.90;99.90
9915;DHT22;4996;48.746;9.174;2022-11-20T15:14:31;8.80;99.90
9915;DHT22;4996;48.746;9.174;2022-11-20T15:17:00;8.80;99.90
9915;DHT22;4996;48.746;9.174;2022-11-20T15:19:26;8.60;99.90
9915;DHT22;4996;48.746;9.174;2022-11-20T15:21:52;8.60;99.90
9915;DHT22;4996;48.746;9.174;2022-11-20T15:24:18;8.60;99.90
9915;DHT22;4996;48.746;9.174;2022-11-20T15:26:44;8.50;99.90
9915;DHT22;4996;48.746;9.174;2022-11-20T15:29:15;8.30;99.90
9915;DHT22;4996;48.746;9.174;2022-11-20T15:31:44;8.20;99.90
9915;DHT22;4996;48.746;9.174;2022-11-20T15:34:14;8.20;99.90
9915;DHT22;4996;48.746;9.174;2022-11-20T15:36:40;7.90;99.90
9915;DHT22;4996;48.746;9.174;2022-11-20T15:39:07;7.80;99.90
9915;DHT22;4996;48.746;9.174;2022-11-20T15:41:36;7.90;99.90
9915;DHT22;4996;48.746;9.174;2022-11-20T15:44:02;8.00;99.90
9915;DHT22;4996;48.746;9.174;2022-11-20T15:46:30;8.00;99.90
9915;DHT22;4996;48.746;9.174;2022-11-20T15:48:59;8.00;99.90
9915;DHT22;4996;48.746;9.174;2022-11-20T15:51:29;8.10;99.90
9915;DHT22;4996;48.746;9.174;2022-11-20T15:53:55;8.00;99.90
9915;DHT22;4996;48.746;9.174;2022-11-20T15:56:21;8.00;99.90
9915;DHT22;4996;48.746;9.174;2022-11-20T15:58:46;8.10;99.90
9915;DHT22;4996;48.746;9.174;2022-11-20T16:01:14;7.90;99.90
9915;DHT22;4996;48.746;9.174;2022-11-20T16:03:41;7.90;99.90
9915;DHT22;4996;48.746;9.174;2022-11-20T16:06:07;8.00;99.90
9915;DHT22;4996;48.746;9.174;2022-11-20T16:08:33;7.90;99.90
9915;DHT22;4996;48.746;9.174;2022-11-20T16:10:58;8.00;99.90
9915;DHT22;4996;48.746;9.174;2022-11-20T16:13:24;8.00;99.90
9915;DHT22;4996;48.746;9.174;2022-11-20T16:16:19;8.00;99.90
9915;DHT22;4996;48.746;9.174;2022-11-20T16:18:45;7.90;99.90
9915;DHT22;4996;48.746;9.174;2022-11-20T16:21:11;7.90;99.90
9915;DHT22;4996;48.746;9.174;2022-11-20T16:23:40;8.00;99.90
9915;DHT22;4996;48.746;9.174;2022-11-20T16:26:13;8.10;99.90
9915;DHT22;4996;48.746;9.174;2022-11-20T16:28:39;8.10;99.90
9915;DHT22;4996;48.746;9.174;2022-11-20T16:31:13;8.00;99.90
9915;DHT22;4996;48.746;9.174;2022-11-20T16:33:39;8.00;99.90
9915;DHT22;4996;48.746;9.174;2022-11-20T16:36:14;8.00;99.90
9915;DHT22;4996;48.746;9.174;2022-11-20T16:38:41;8.10;99.90
9915;DHT22;4996;48.746;9.174;2022-11-20T16:41:07;8.00;99.90
9915;DHT22;4996;48.746;9.174;2022-11-20T16:43:47;8.10;99.90
9915;DHT22;4996;48.746;9.174;2022-11-20T16:46:14;8.00;99.90
9915;DHT22;4996;48.746;9.174;2022-11-20T16:48:40;8.00;99.90
9915;DHT22;4996;48.746;9.174;2022-11-20T16:51:08;8.10;99.90
9915;DHT22;4996;48.746;9.174;2022-11-20T16:53:34;8.10;99.90
9915;DHT22;4996;48.746;9.174;2022-11-20T16:56:14;8.00;99.90
9915;DHT22;4996;48.746;9.174;2022-11-20T16:58:42;8.00;99.90
9915;DHT22;4996;48.746;9.174;2022-11-20T17:01:08;8.00;99.90
9915;DHT22;4996;48.746;9.174;2022-11-20T17:03:42;7.90;99.90
9915;DHT22;4996;48.746;9.174;2022-11-20T17:06:16;7.90;99.90
9915;DHT22;4996;48.746;9.174;2022-11-20T17:08:43;8.00;99.90
9915;DHT22;4996;48.746;9.174;2022-11-20T17:11:11;8.00;99.90
9915;DHT22;4996;48.746;9.174;2022-11-20T17:13:37;8.00;99.90
9915;DHT22;4996;48.746;9.174;2022-11-20T17:16:05;7.90;99.90
9915;DHT22;4996;48.746;9.174;2022-11-20T17:18:31;7.80;99.90
9915;DHT22;4996;48.746;9.174;2022-11-20T17:20:57;7.70;99.90
9915;DHT22;4996;48.746;9.174;2022-11-20T17:23:27;7.80;99.90
9915;DHT22;4996;48.746;9.174;2022-11-20T17:26:03;7.70;99.90
9915;DHT22;4996;48.746;9.174;2022-11-20T17:28:29;7.70;99.90
9915;DHT22;4996;48.746;9.174;2022-11-20T17:31:08;7.70;99.90
9915;DHT22;4996;48.746;9.174;2022-11-20T17:33:35;7.60;99.90
9915;DHT22;4996;48.746;9.174;2022-11-20T17:36:01;7.50;99.90
9915;DHT22;4996;48.746;9.174;2022-11-20T17:38:26;7.60;99.90
9915;DHT22;4996;48.746;9.174;2022-11-20T17:40:52;7.60;99.90
9915;DHT22;4996;48.746;9.174;2022-11-20T17:43:18;7.60;99.90
9915;DHT22;4996;48.746;9.174;2022-11-20T17:45:44;7.70;99.90
9915;DHT22;4996;48.746;9.174;2022-11-20T17:48:10;7.70;99.90
9915;DHT22;4996;48.746;9.174;2022-11-20T17:50:36;7.70;99.90
9915;DHT22;4996;48.746;9.174;2022-11-20T17:53:02;7.70;99.90
9915;DHT22;4996;48.746;9.174;2022-11-20T17:55:28;7.70;99.90
9915;DHT22;4996;48.746;9.174;2022-11-20T17:58:13;7.70;99.90
9915;DHT22;4996;48.746;9.174;2022-11-20T18:00:39;7.60;99.90
9915;DHT22;4996;48.746;9.174;2022-11-20T18:03:04;7.70;99.90
9915;DHT22;4996;48.746;9.174;2022-11-20T18:05:30;7.60;99.90